createdAt,value
2022-08-26T00:00:38.674Z,22.53
2022-08-26T00:04:06.878Z,22.49
2022-08-26T00:07:34.025Z,22.48
2022-08-26T00:11:01.260Z,22.46
2022-08-26T00:14:30.900Z,22.43
2022-08-26T00:17:59.234Z,22.40
2022-08-26T00:21:26.830Z,22.41
2022-08-26T00:24:54.495Z,22.42
2022-08-26T00:28:21.897Z,22.42
2022-08-26T00:31:51.139Z,22.42
2022-08-26T00:35:19.312Z,22.42
2022-08-26T00:38:46.574Z,22.40
2022-08-26T00:42:14.347Z,22.40
2022-08-26T00:45:46.935Z,22.39
2022-08-26T00:49:18.663Z,22.35
2022-08-26T00:52:48.559Z,22.36
2022-08-26T00:56:24.030Z,22.37
2022-08-26T00:59:58.495Z,22.36
2022-08-26T01:03:28.254Z,22.38
2022-08-26T01:07:20.375Z,22.35
2022-08-26T01:10:48.593Z,22.36
2022-08-26T01:14:21.239Z,22.37
2022-08-26T01:17:52.913Z,22.39
2022-08-26T01:21:28.204Z,22.41
2022-08-26T01:24:57.097Z,22.42
2022-08-26T01:28:29.719Z,22.44
2022-08-26T01:31:59.429Z,22.41
2022-08-26T01:35:27.055Z,22.49
2022-08-26T01:38:54.965Z,22.50
2022-08-26T01:42:23.756Z,22.48
2022-08-26T01:45:57.185Z,22.48
2022-08-26T01:49:26.149Z,22.50
2022-08-26T01:52:55.202Z,22.52
2022-08-26T01:56:23.080Z,22.53
2022-08-26T01:59:51.152Z,22.55
2022-08-26T02:03:22.058Z,22.56
2022-08-26T02:06:51.323Z,22.59
2022-08-26T02:10:19.798Z,22.62
2022-08-26T02:13:51.248Z,22.64
2022-08-26T02:17:19.324Z,22.66
2022-08-26T02:20:51.493Z,22.67
2022-08-26T02:24:21.630Z,22.68
2022-08-26T02:27:49.772Z,22.60
2022-08-26T02:31:17.008Z,22.66
2022-08-26T02:34:44.640Z,22.64
2022-08-26T02:38:12.416Z,22.57
2022-08-26T02:41:45.226Z,22.62
2022-08-26T02:45:13.789Z,22.61
2022-08-26T02:48:47.298Z,22.60
2022-08-26T02:52:17.218Z,22.60
2022-08-26T02:55:46.018Z,22.62
2022-08-26T02:59:15.932Z,22.59
2022-08-26T03:02:43.564Z,22.59
2022-08-26T03:06:11.880Z,22.60
2022-08-26T03:09:38.746Z,22.60
2022-08-26T03:13:07.607Z,22.58
2022-08-26T03:16:37.381Z,22.54
2022-08-26T03:20:08.940Z,22.51
2022-08-26T03:23:43.296Z,22.51
2022-08-26T03:27:10.904Z,22.51
2022-08-26T03:30:45.111Z,22.51
2022-08-26T03:34:13.210Z,22.52
2022-08-26T03:37:41.527Z,22.54
2022-08-26T03:41:11.114Z,22.52
2022-08-26T03:44:41.958Z,22.49
2022-08-26T03:48:09.846Z,22.48
2022-08-26T03:51:38.659Z,22.44
2022-08-26T03:55:07.221Z,22.46
2022-08-26T03:58:35.622Z,22.47
2022-08-26T04:02:02.923Z,22.47
2022-08-26T04:05:36.465Z,22.50
2022-08-26T04:09:08.558Z,22.50
2022-08-26T04:12:38.257Z,22.46
2022-08-26T04:16:06.358Z,22.45
2022-08-26T04:19:33.909Z,22.45
2022-08-26T04:23:01.000Z,22.45
2022-08-26T04:26:28.769Z,22.46
2022-08-26T04:29:56.203Z,22.46
2022-08-26T04:33:32.281Z,22.47
2022-08-26T04:37:02.092Z,22.49
2022-08-26T04:40:29.527Z,22.49
2022-08-26T04:43:57.327Z,22.51
2022-08-26T04:47:30.407Z,22.53
2022-08-26T04:51:00.452Z,22.56
2022-08-26T04:54:27.906Z,22.58
2022-08-26T04:57:56.867Z,22.60
2022-08-26T05:01:29.357Z,22.61
2022-08-26T05:04:57.874Z,22.63
2022-08-26T05:08:26.167Z,22.66
2022-08-26T05:11:55.520Z,22.70
2022-08-26T05:15:23.860Z,22.73
2022-08-26T05:18:55.479Z,22.75
2022-08-26T05:22:23.199Z,22.77
2022-08-26T05:25:55.821Z,22.77
2022-08-26T05:29:26.722Z,22.74
2022-08-26T05:32:55.477Z,22.72
2022-08-26T05:36:24.476Z,22.69
2022-08-26T05:39:54.857Z,22.70
2022-08-26T05:43:29.583Z,22.69
2022-08-26T05:46:58.590Z,22.69
2022-08-26T05:50:28.096Z,22.72
2022-08-26T05:54:05.708Z,22.80
2022-08-26T05:57:40.382Z,22.86
2022-08-26T06:01:16.138Z,22.90
2022-08-26T06:04:44.478Z,22.95
2022-08-26T06:08:15.489Z,22.99
2022-08-26T06:11:47.536Z,23.01
2022-08-26T06:15:15.306Z,23.03
2022-08-26T06:18:44.995Z,23.05
2022-08-26T06:22:25.892Z,23.07
2022-08-26T06:25:53.727Z,23.06
2022-08-26T06:29:24.854Z,23.05
2022-08-26T06:33:02.085Z,23.07
2022-08-26T06:36:33.238Z,23.07
2022-08-26T06:40:02.891Z,23.11
2022-08-26T06:43:33.588Z,23.15
2022-08-26T06:47:01.228Z,23.20
2022-08-26T06:50:28.012Z,23.26
2022-08-26T06:53:57.440Z,23.32
2022-08-26T06:57:25.314Z,23.40
2022-08-26T07:00:52.254Z,23.47
2022-08-26T07:04:22.337Z,23.54
2022-08-26T07:07:54.480Z,23.61
2022-08-26T07:11:22.113Z,23.65
2022-08-26T07:14:52.104Z,23.68
2022-08-26T07:18:22.957Z,23.75
2022-08-26T07:21:50.997Z,23.79
2022-08-26T07:25:19.330Z,23.83
2022-08-26T07:28:47.846Z,23.90
2022-08-26T07:32:17.271Z,23.95
2022-08-26T07:35:46.163Z,24.02
2022-08-26T07:39:13.967Z,24.12
2022-08-26T07:42:40.763Z,24.20
2022-08-26T07:46:16.291Z,24.29
2022-08-26T07:49:43.350Z,24.37
2022-08-26T07:53:11.973Z,24.46
2022-08-26T07:56:41.388Z,24.55
2022-08-26T08:00:14.809Z,24.61
2022-08-26T08:03:43.927Z,24.70
2022-08-26T08:07:13.015Z,24.78
2022-08-26T08:10:48.930Z,24.84
2022-08-26T08:14:22.067Z,24.90
2022-08-26T08:17:51.693Z,24.97
2022-08-26T08:21:24.322Z,25.04
2022-08-26T08:24:55.888Z,25.11
2022-08-26T08:28:22.976Z,25.17
2022-08-26T08:31:56.500Z,25.24
2022-08-26T08:35:26.674Z,25.32
2022-08-26T08:38:53.510Z,25.41
2022-08-26T08:42:45.955Z,25.51
2022-08-26T08:46:19.657Z,25.65
2022-08-26T08:49:55.940Z,25.74
2022-08-26T08:53:31.672Z,25.86
2022-08-26T08:57:07.703Z,25.97
2022-08-26T09:00:48.105Z,26.09
2022-08-26T09:04:51.991Z,26.20
2022-08-26T09:08:24.388Z,26.34
2022-08-26T09:11:52.138Z,26.48
2022-08-26T09:15:24.645Z,26.61
2022-08-26T09:19:05.769Z,26.74
2022-08-26T09:22:35.798Z,26.85
2022-08-26T09:26:06.165Z,26.96
2022-08-26T09:29:46.216Z,27.07
2022-08-26T09:33:28.863Z,27.18
2022-08-26T09:37:04.570Z,27.29
2022-08-26T09:40:37.060Z,27.45
2022-08-26T09:44:17.202Z,27.57
2022-08-26T09:47:56.335Z,27.69
2022-08-26T09:51:33.605Z,27.80
2022-08-26T09:55:13.559Z,27.94
2022-08-26T09:58:43.534Z,28.09
2022-08-26T10:02:28.590Z,28.22
2022-08-26T10:06:05.123Z,28.34
2022-08-26T10:09:37.492Z,28.47
2022-08-26T10:13:07.354Z,28.59
2022-08-26T10:16:48.814Z,28.71
2022-08-26T10:20:25.222Z,28.83
2022-08-26T10:23:56.990Z,28.94
2022-08-26T10:27:35.471Z,29.06
2022-08-26T10:31:06.812Z,29.17
2022-08-26T10:34:35.121Z,29.28
2022-08-26T10:38:11.618Z,29.41
2022-08-26T10:41:45.090Z,29.52
2022-08-26T10:45:15.247Z,29.61
2022-08-26T10:48:48.921Z,29.72
2022-08-26T10:52:23.506Z,29.81
2022-08-26T10:56:15.572Z,29.90
2022-08-26T11:00:01.709Z,29.99
2022-08-26T11:03:40.878Z,30.07
2022-08-26T11:07:46.307Z,30.16
2022-08-26T11:11:13.740Z,30.24
2022-08-26T11:14:53.553Z,30.32
2022-08-26T11:22:12.032Z,30.59
2022-08-26T11:26:35.462Z,30.73
2022-08-26T11:30:03.735Z,30.82
2022-08-26T11:33:54.162Z,30.91
2022-08-26T11:37:23.743Z,31.03
2022-08-26T11:41:20.117Z,31.11
2022-08-26T11:44:49.691Z,31.23
2022-08-26T11:48:21.097Z,31.28
2022-08-26T11:51:48.454Z,31.37
2022-08-26T11:55:19.209Z,31.47
2022-08-26T11:58:48.484Z,31.63
2022-08-26T12:02:19.829Z,31.79
2022-08-26T12:05:50.356Z,31.97
2022-08-26T12:09:24.527Z,32.12
2022-08-26T12:12:59.278Z,32.24
2022-08-26T12:16:28.904Z,32.43
2022-08-26T12:19:57.207Z,32.61
2022-08-26T12:23:37.163Z,32.74
2022-08-26T12:27:19.278Z,32.89
2022-08-26T12:31:02.103Z,33.12
2022-08-26T12:34:28.456Z,33.30
2022-08-26T12:37:58.418Z,33.47
2022-08-26T12:41:49.317Z,33.64
2022-08-26T12:45:36.362Z,33.81
2022-08-26T12:49:54.968Z,33.96
2022-08-26T12:53:50.961Z,34.16
2022-08-26T12:57:18.288Z,34.31
2022-08-26T13:00:47.833Z,34.41
2022-08-26T13:04:36.583Z,34.54
2022-08-26T13:08:26.265Z,34.69
2022-08-26T13:12:02.695Z,34.80
2022-08-26T13:15:29.642Z,34.92
2022-08-26T13:19:04.020Z,35.10
2022-08-26T13:22:31.766Z,35.22
2022-08-26T13:26:00.238Z,35.29
2022-08-26T13:29:26.993Z,35.32
2022-08-26T13:33:02.206Z,35.36
2022-08-26T13:36:32.300Z,35.50
2022-08-26T13:39:59.414Z,35.60
2022-08-26T13:43:28.361Z,35.72
2022-08-26T13:46:57.301Z,35.78
2022-08-26T13:50:26.502Z,35.88
2022-08-26T13:54:00.751Z,35.95
2022-08-26T13:57:29.023Z,36.00
2022-08-26T14:00:59.574Z,36.03
2022-08-26T14:04:27.597Z,36.06
2022-08-26T14:07:59.084Z,36.14
2022-08-26T14:11:27.384Z,36.24
2022-08-26T14:14:55.259Z,36.28
2022-08-26T14:18:30.685Z,36.23
2022-08-26T14:21:59.554Z,36.19
2022-08-26T14:25:30.090Z,36.15
2022-08-26T14:28:57.270Z,36.17
2022-08-26T14:32:28.060Z,36.18
2022-08-26T14:36:18.186Z,36.22
2022-08-26T14:39:45.743Z,36.17
2022-08-26T14:43:14.078Z,36.09
2022-08-26T14:46:46.128Z,36.05
2022-08-26T14:50:16.770Z,35.94
2022-08-26T14:54:04.291Z,35.86
2022-08-26T14:57:32.003Z,35.78
2022-08-26T15:01:00.112Z,35.67
2022-08-26T15:04:34.529Z,35.57
2022-08-26T15:08:02.970Z,35.40
2022-08-26T15:11:30.111Z,35.16
2022-08-26T15:14:58.290Z,34.83
2022-08-26T15:18:26.476Z,34.49
2022-08-26T15:21:55.705Z,34.14
2022-08-26T15:25:25.443Z,33.77
2022-08-26T15:28:56.918Z,33.44
2022-08-26T15:32:27.285Z,33.16
2022-08-26T15:35:58.106Z,32.91
2022-08-26T15:39:27.650Z,32.67
2022-08-26T15:43:11.308Z,32.43
2022-08-26T15:46:43.871Z,32.19
2022-08-26T15:50:12.685Z,31.98
2022-08-26T15:53:41.125Z,31.79
2022-08-26T15:57:11.450Z,31.60
2022-08-26T16:00:46.836Z,31.44
2022-08-26T16:04:17.989Z,31.27
2022-08-26T16:07:45.705Z,31.12
2022-08-26T16:11:13.904Z,30.96
2022-08-26T16:14:42.838Z,30.83
2022-08-26T16:18:11.944Z,30.67
2022-08-26T16:21:42.891Z,30.51
2022-08-26T16:25:11.954Z,30.36
2022-08-26T16:28:40.506Z,30.21
2022-08-26T16:32:12.549Z,30.10
2022-08-26T16:35:44.565Z,29.99
2022-08-26T16:39:16.438Z,29.88
2022-08-26T16:42:45.519Z,29.78
2022-08-26T16:46:14.441Z,29.66
2022-08-26T16:49:47.991Z,29.54
2022-08-26T16:53:16.359Z,29.45
2022-08-26T16:56:44.459Z,29.33
2022-08-26T17:00:17.167Z,29.21
2022-08-26T17:03:45.353Z,29.08
2022-08-26T17:07:12.625Z,28.97
2022-08-26T17:10:40.624Z,28.84
2022-08-26T17:14:15.617Z,28.70
2022-08-26T17:17:45.423Z,28.56
2022-08-26T17:21:14.273Z,28.45
2022-08-26T17:24:47.515Z,28.31
2022-08-26T17:28:16.618Z,28.19
2022-08-26T17:31:46.453Z,28.05
2022-08-26T17:35:21.586Z,27.91
2022-08-26T17:38:49.740Z,27.77
2022-08-26T17:42:20.439Z,27.63
2022-08-26T17:45:53.095Z,27.49
2022-08-26T17:49:20.586Z,27.36
2022-08-26T17:52:49.586Z,27.24
2022-08-26T17:56:19.866Z,27.09
2022-08-26T18:00:00.461Z,26.95
2022-08-26T18:03:34.196Z,26.80
2022-08-26T18:07:02.945Z,26.64
2022-08-26T18:10:31.616Z,26.52
2022-08-26T18:13:59.695Z,26.40
2022-08-26T18:17:29.456Z,26.26
2022-08-26T18:21:01.263Z,26.14
2022-08-26T18:24:30.617Z,26.03
2022-08-26T18:27:58.374Z,25.91
2022-08-26T18:31:31.698Z,25.78
2022-08-26T18:35:01.077Z,25.65
2022-08-26T18:38:32.370Z,25.53
2022-08-26T18:42:00.859Z,25.41
2022-08-26T18:45:34.447Z,25.28
2022-08-26T18:49:04.496Z,25.14
2022-08-26T18:52:34.692Z,25.01
2022-08-26T18:56:02.243Z,24.88
2022-08-26T18:59:29.677Z,24.76
2022-08-26T19:03:01.680Z,24.65
2022-08-26T19:06:33.086Z,24.56
2022-08-26T19:10:05.376Z,24.45
2022-08-26T19:13:31.809Z,24.36
2022-08-26T19:17:02.266Z,24.20
2022-08-26T19:20:32.372Z,24.11
2022-08-26T19:24:03.441Z,24.02
2022-08-26T19:27:31.400Z,23.92
2022-08-26T19:30:59.457Z,23.80
2022-08-26T19:34:29.845Z,23.72
2022-08-26T19:37:57.358Z,23.63
2022-08-26T19:41:34.164Z,23.56
2022-08-26T19:45:18.291Z,23.48
2022-08-26T19:48:57.862Z,23.34
2022-08-26T19:52:29.853Z,23.25
2022-08-26T19:55:58.199Z,23.20
2022-08-26T19:59:29.501Z,23.12
2022-08-26T20:02:56.974Z,23.05
2022-08-26T20:06:24.541Z,22.94
2022-08-26T20:09:52.827Z,22.83
2022-08-26T20:13:22.142Z,22.74
2022-08-26T20:16:50.089Z,22.67
2022-08-26T20:20:39.643Z,22.58
2022-08-26T20:24:13.258Z,22.52
2022-08-26T20:27:42.419Z,22.43
2022-08-26T20:31:12.452Z,22.38
2022-08-26T20:34:43.874Z,22.35
2022-08-26T20:38:12.792Z,22.27
2022-08-26T20:41:45.839Z,22.18
2022-08-26T20:45:16.207Z,22.14
2022-08-26T20:48:48.930Z,22.11
2022-08-26T20:52:16.682Z,22.06
2022-08-26T20:55:51.985Z,22.02
2022-08-26T20:59:21.769Z,21.97
2022-08-26T21:02:53.404Z,21.91
2022-08-26T21:06:24.361Z,21.86
2022-08-26T21:09:59.147Z,21.80
2022-08-26T21:13:30.748Z,21.75
2022-08-26T21:17:05.576Z,21.69
2022-08-26T21:20:35.363Z,21.62
2022-08-26T21:24:03.073Z,21.57
2022-08-26T21:27:30.781Z,21.53
2022-08-26T21:30:59.431Z,21.47
2022-08-26T21:34:27.838Z,21.42
2022-08-26T21:37:55.343Z,21.39
2022-08-26T21:41:23.981Z,21.38
2022-08-26T21:44:55.439Z,21.37
2022-08-26T21:48:24.014Z,21.27
2022-08-26T21:51:59.256Z,21.29
2022-08-26T21:55:26.543Z,21.23
2022-08-26T21:58:55.247Z,21.21
2022-08-26T22:02:25.635Z,21.22
2022-08-26T22:05:52.974Z,21.26
2022-08-26T22:09:23.355Z,21.29
2022-08-26T22:13:00.648Z,21.32
2022-08-26T22:16:36.465Z,21.33
2022-08-26T22:20:05.183Z,21.28
2022-08-26T22:23:39.637Z,21.26
2022-08-26T22:27:07.327Z,21.19
2022-08-26T22:30:35.834Z,21.17
2022-08-26T22:34:03.523Z,21.17
2022-08-26T22:37:31.006Z,21.17
2022-08-26T22:41:00.569Z,21.13
2022-08-26T22:44:29.409Z,21.11
2022-08-26T22:47:59.349Z,21.09
2022-08-26T22:51:26.485Z,21.09
2022-08-26T22:54:55.165Z,21.07
2022-08-26T22:58:30.198Z,21.07
2022-08-26T23:01:58.550Z,21.07
2022-08-26T23:05:30.406Z,21.03
2022-08-26T23:09:12.506Z,21.01
2022-08-26T23:12:40.551Z,20.97
2022-08-26T23:16:11.964Z,20.95
2022-08-26T23:19:43.182Z,20.94
2022-08-26T23:23:11.215Z,20.94
2022-08-26T23:26:42.912Z,21.05
2022-08-26T23:30:14.540Z,21.14
2022-08-26T23:34:00.279Z,21.23
2022-08-26T23:37:29.231Z,21.31
2022-08-26T23:41:01.492Z,21.38
2022-08-26T23:44:30.271Z,21.44
2022-08-26T23:47:58.236Z,21.48
2022-08-26T23:51:57.835Z,21.52
2022-08-26T23:55:26.861Z,21.55
2022-08-26T23:58:54.620Z,21.57
